createdAt,value
2023-01-17T00:00:27.769Z,5.46
2023-01-17T00:01:27.509Z,5.52
2023-01-17T00:02:27.709Z,5.52
2023-01-17T00:03:27.566Z,5.49
2023-01-17T00:04:30.568Z,5.43
2023-01-17T00:05:27.530Z,5.44
2023-01-17T00:06:27.528Z,5.38
2023-01-17T00:07:27.535Z,5.41
2023-01-17T00:08:27.545Z,5.49
2023-01-17T00:09:27.546Z,5.56
2023-01-17T00:10:27.645Z,5.49
2023-01-17T00:11:27.544Z,5.41
2023-01-17T00:12:27.551Z,5.38
2023-01-17T00:13:27.572Z,5.4
2023-01-17T00:14:27.597Z,5.49
2023-01-17T00:15:30.599Z,5.38
2023-01-17T00:16:27.690Z,5.44
2023-01-17T00:17:27.524Z,5.46
2023-01-17T00:18:27.532Z,5.47
2023-01-17T00:19:27.545Z,5.36
2023-01-17T00:20:27.591Z,5.37
2023-01-17T00:21:27.597Z,5.38
2023-01-17T00:22:27.592Z,5.34
2023-01-17T00:23:27.536Z,5.47
2023-01-17T00:24:27.584Z,5.38
2023-01-17T00:25:30.332Z,5.38
2023-01-17T00:26:30.636Z,5.26
2023-01-17T00:27:27.570Z,5.31
2023-01-17T00:28:27.597Z,5.43
2023-01-17T00:29:27.621Z,5.28
2023-01-17T00:30:27.627Z,5.38
2023-01-17T00:31:27.821Z,5.36
2023-01-17T00:32:27.586Z,5.36
2023-01-17T00:33:27.612Z,5.31
2023-01-17T00:34:27.652Z,5.34
2023-01-17T00:35:27.680Z,5.37
2023-01-17T00:36:28.585Z,5.36
2023-01-17T00:37:31.822Z,5.38
2023-01-17T00:38:27.618Z,5.31
2023-01-17T00:39:27.670Z,5.36
2023-01-17T00:40:27.647Z,5.34
2023-01-17T00:41:27.611Z,5.26
2023-01-17T00:42:27.562Z,5.34
2023-01-17T00:43:27.619Z,5.28
2023-01-17T00:44:27.573Z,5.23
2023-01-17T00:45:27.665Z,5.16
2023-01-17T00:46:27.921Z,5.16
2023-01-17T00:47:27.595Z,5.23
2023-01-17T00:48:30.332Z,5.19
2023-01-17T00:49:27.628Z,5.1
2023-01-17T00:50:27.641Z,5.13
2023-01-17T00:51:27.599Z,5.19
2023-01-17T00:52:27.583Z,5.22
2023-01-17T00:53:27.604Z,5.07
2023-01-17T00:54:27.597Z,5.13
2023-01-17T00:55:27.611Z,5.13
2023-01-17T00:56:27.648Z,5.05
2023-01-17T00:57:27.615Z,5.13
2023-01-17T00:58:27.604Z,5.12
2023-01-17T00:59:30.379Z,5.07
2023-01-17T01:00:27.645Z,5.05
2023-01-17T01:01:28.024Z,5.05
2023-01-17T01:02:30.816Z,5.01
2023-01-17T01:03:27.620Z,4.9
2023-01-17T01:04:30.622Z,4.94
2023-01-17T01:05:27.682Z,5.04
2023-01-17T01:06:27.632Z,4.98
2023-01-17T01:07:27.634Z,4.9
2023-01-17T01:08:27.640Z,4.92
2023-01-17T01:09:27.628Z,4.95
2023-01-17T01:10:30.464Z,4.87
2023-01-17T01:11:27.655Z,4.86
2023-01-17T01:12:27.652Z,4.79
2023-01-17T01:13:27.616Z,4.84
2023-01-17T01:14:27.943Z,4.78
2023-01-17T01:15:30.569Z,4.9
2023-01-17T01:16:27.898Z,4.92
2023-01-17T01:17:27.655Z,4.86
2023-01-17T01:18:27.657Z,4.74
2023-01-17T01:19:27.736Z,4.87
2023-01-17T01:20:27.644Z,4.97
2023-01-17T01:21:30.479Z,4.98
2023-01-17T01:22:27.640Z,4.94
2023-01-17T01:23:27.666Z,4.97
2023-01-17T01:24:27.642Z,4.9
2023-01-17T01:25:27.639Z,4.95
2023-01-17T01:26:30.745Z,4.98
2023-01-17T01:27:27.671Z,4.95
2023-01-17T01:28:27.693Z,5
2023-01-17T01:29:27.644Z,4.89
2023-01-17T01:30:28.741Z,4.97
2023-01-17T01:31:27.856Z,5.08
2023-01-17T01:32:30.688Z,4.94
2023-01-17T01:33:27.677Z,4.98
2023-01-17T01:34:27.701Z,4.97
2023-01-17T01:35:27.698Z,4.9
2023-01-17T01:36:27.651Z,5.04
2023-01-17T01:37:30.752Z,4.97
2023-01-17T01:38:27.677Z,4.94
2023-01-17T01:39:27.686Z,4.95
2023-01-17T01:40:27.690Z,4.98
2023-01-17T01:41:27.679Z,5
2023-01-17T01:42:27.699Z,4.98
2023-01-17T01:43:27.718Z,5
2023-01-17T01:44:27.688Z,5.07
2023-01-17T01:45:27.964Z,4.98
2023-01-17T01:46:27.696Z,5.01
2023-01-17T01:47:27.714Z,4.94
2023-01-17T01:48:27.902Z,5.04
2023-01-17T01:49:27.699Z,5.01
2023-01-17T01:50:27.730Z,5
2023-01-17T01:51:27.687Z,5.04
2023-01-17T01:52:27.675Z,5.07
2023-01-17T01:53:27.686Z,5.02
2023-01-17T01:54:27.675Z,5.13
2023-01-17T01:55:27.685Z,5.12
2023-01-17T01:56:30.414Z,5.12
2023-01-17T01:57:27.755Z,5.13
2023-01-17T01:58:27.734Z,5.15
2023-01-17T01:59:27.711Z,5.16
2023-01-17T02:00:27.756Z,5.16
2023-01-17T02:01:28.084Z,5.15
2023-01-17T02:02:27.730Z,5.16
2023-01-17T02:03:27.751Z,5.16
2023-01-17T02:04:27.716Z,5.15
2023-01-17T02:05:27.740Z,5.16
2023-01-17T02:06:27.744Z,5.12
2023-01-17T02:07:27.718Z,5.16
2023-01-17T02:08:27.723Z,5.19
2023-01-17T02:09:27.775Z,5.12
2023-01-17T02:10:27.717Z,5.18
2023-01-17T02:11:27.717Z,5.16
2023-01-17T02:12:27.797Z,5.18
2023-01-17T02:13:27.815Z,5.19
2023-01-17T02:14:27.732Z,5.16
2023-01-17T02:16:28.103Z,5.01
2023-01-17T02:17:27.732Z,5.1
2023-01-17T02:18:27.737Z,5.04
2023-01-17T02:19:27.812Z,5
2023-01-17T02:20:27.738Z,5.04
2023-01-17T02:21:27.771Z,5.02
2023-01-17T02:22:27.764Z,5.1
2023-01-17T02:23:27.743Z,4.97
2023-01-17T02:24:27.764Z,5.02
2023-01-17T02:25:27.741Z,5.05
2023-01-17T02:26:27.767Z,5.04
2023-01-17T02:27:27.764Z,5
2023-01-17T02:28:27.732Z,4.95
2023-01-17T02:29:27.751Z,5.08
2023-01-17T02:30:27.893Z,5.01
2023-01-17T02:31:30.998Z,5.07
2023-01-17T02:32:27.917Z,5.02
2023-01-17T02:33:27.761Z,4.94
2023-01-17T02:34:27.770Z,4.97
2023-01-17T02:35:27.763Z,5.07
2023-01-17T02:36:27.764Z,5.04
2023-01-17T02:37:27.768Z,4.94
2023-01-17T02:38:30.923Z,4.92
2023-01-17T02:39:27.773Z,4.95
2023-01-17T02:40:27.759Z,5.02
2023-01-17T02:41:27.798Z,4.94
2023-01-17T02:42:30.645Z,4.95
2023-01-17T02:43:27.754Z,4.92
2023-01-17T02:44:27.614Z,4.98
2023-01-17T02:45:27.770Z,4.9
2023-01-17T02:46:27.806Z,4.82
2023-01-17T02:47:27.844Z,4.82
2023-01-17T02:48:27.803Z,4.82
2023-01-17T02:49:27.789Z,4.7
2023-01-17T02:50:27.767Z,4.7
2023-01-17T02:51:27.796Z,4.7
2023-01-17T02:52:27.766Z,4.74
2023-01-17T02:53:30.854Z,4.75
2023-01-17T02:54:27.807Z,4.61
2023-01-17T02:55:27.789Z,4.63
2023-01-17T02:56:27.831Z,4.7
2023-01-17T02:57:27.816Z,4.74
2023-01-17T02:58:27.791Z,4.61
2023-01-17T02:59:27.652Z,4.67
2023-01-17T03:00:27.788Z,4.61
2023-01-17T03:01:28.293Z,4.63
2023-01-17T03:02:27.964Z,4.64
2023-01-17T03:03:27.832Z,4.67
2023-01-17T03:04:30.835Z,4.49
2023-01-17T03:05:27.813Z,4.5
2023-01-17T03:06:27.848Z,4.57
2023-01-17T03:07:27.825Z,4.48
2023-01-17T03:08:27.803Z,4.48
2023-01-17T03:09:27.651Z,4.56
2023-01-17T03:10:27.676Z,4.58
2023-01-17T03:11:27.842Z,4.53
2023-01-17T03:12:27.811Z,4.56
2023-01-17T03:13:27.811Z,4.56
2023-01-17T03:14:27.817Z,4.53
2023-01-17T03:15:30.672Z,4.52
2023-01-17T03:16:28.027Z,4.39
2023-01-17T03:17:27.838Z,4.48
2023-01-17T03:18:27.859Z,4.4
2023-01-17T03:19:27.880Z,4.34
2023-01-17T03:20:27.812Z,4.48
2023-01-17T03:21:27.845Z,4.48
2023-01-17T03:22:27.860Z,4.48
2023-01-17T03:23:27.836Z,4.46
2023-01-17T03:24:27.865Z,4.43
2023-01-17T03:25:27.880Z,4.48
2023-01-17T03:26:30.946Z,4.46
2023-01-17T03:27:27.831Z,4.5
2023-01-17T03:28:27.851Z,4.48
2023-01-17T03:29:27.855Z,4.4
2023-01-17T03:30:28.028Z,4.48
2023-01-17T03:31:28.717Z,4.39
2023-01-17T03:32:27.838Z,4.46
2023-01-17T03:33:27.850Z,4.45
2023-01-17T03:34:27.891Z,4.42
2023-01-17T03:35:27.954Z,4.4
2023-01-17T03:36:27.936Z,4.36
2023-01-17T03:37:30.679Z,4.36
2023-01-17T03:38:27.853Z,4.4
2023-01-17T03:39:27.872Z,4.39
2023-01-17T03:40:28.855Z,4.42
2023-01-17T03:41:27.926Z,4.38
2023-01-17T03:42:30.670Z,4.4
2023-01-17T03:43:27.906Z,4.48
2023-01-17T03:44:27.913Z,4.43
2023-01-17T03:45:27.866Z,4.28
2023-01-17T03:46:28.061Z,4.38
2023-01-17T03:47:27.899Z,4.25
2023-01-17T03:48:30.896Z,4.32
2023-01-17T03:49:27.870Z,4.4
2023-01-17T03:50:27.920Z,4.36
2023-01-17T03:51:27.915Z,4.32
2023-01-17T03:52:27.876Z,4.28
2023-01-17T03:53:30.654Z,4.22
2023-01-17T03:54:27.903Z,4.22
2023-01-17T03:55:27.882Z,4.2
2023-01-17T03:56:27.916Z,4.2
2023-01-17T03:57:27.943Z,4.3
2023-01-17T03:58:27.907Z,4.34
2023-01-17T03:59:30.959Z,4.27
2023-01-17T04:00:27.886Z,4.13
2023-01-17T04:01:28.408Z,4.16
2023-01-17T04:02:28.016Z,4.18
2023-01-17T04:03:27.893Z,4.28
2023-01-17T04:04:31.750Z,4.27
2023-01-17T04:05:27.893Z,4.21
2023-01-17T04:06:27.933Z,4.32
2023-01-17T04:07:27.928Z,4.36
2023-01-17T04:08:27.890Z,4.27
2023-01-17T04:09:28.095Z,4.22
2023-01-17T04:10:27.878Z,4.16
2023-01-17T04:11:27.933Z,4.3
2023-01-17T04:12:27.906Z,4.27
2023-01-17T04:13:27.947Z,4.28
2023-01-17T04:14:27.938Z,4.32
2023-01-17T04:15:30.852Z,4.22
2023-01-17T04:16:28.066Z,4.22
2023-01-17T04:17:27.901Z,4.24
2023-01-17T04:18:27.896Z,4.09
2023-01-17T04:19:27.932Z,4.12
2023-01-17T04:20:27.917Z,4.2
2023-01-17T04:21:27.969Z,4.21
2023-01-17T04:22:30.914Z,4.22
2023-01-17T04:23:27.932Z,4.22
2023-01-17T04:24:28.052Z,4.06
2023-01-17T04:25:27.950Z,4.21
2023-01-17T04:26:27.941Z,4.1
2023-01-17T04:27:27.931Z,4.07
2023-01-17T04:28:28.089Z,4.18
2023-01-17T04:29:27.967Z,4.14
2023-01-17T04:30:27.981Z,4.04
2023-01-17T04:31:28.092Z,4.07
2023-01-17T04:32:27.961Z,4.04
2023-01-17T04:33:27.936Z,4.16
2023-01-17T04:34:27.921Z,3.92
2023-01-17T04:35:27.940Z,4.1
2023-01-17T04:36:28.016Z,4.06
2023-01-17T04:37:27.952Z,4.06
2023-01-17T04:38:27.982Z,4.12
2023-01-17T04:39:27.972Z,3.99
2023-01-17T04:40:27.950Z,4
2023-01-17T04:41:28.007Z,4.03
2023-01-17T04:42:27.952Z,3.89
2023-01-17T04:43:27.957Z,3.78
2023-01-17T04:44:27.955Z,3.94
2023-01-17T04:45:27.982Z,3.94
2023-01-17T04:46:28.470Z,3.88
2023-01-17T04:47:27.961Z,3.86
2023-01-17T04:48:27.962Z,3.88
2023-01-17T04:49:27.969Z,3.92
2023-01-17T04:50:27.973Z,3.95
2023-01-17T04:51:28.003Z,3.88
2023-01-17T04:52:27.972Z,3.92
2023-01-17T04:53:27.973Z,3.91
2023-01-17T04:54:28.012Z,3.94
2023-01-17T04:55:27.978Z,3.91
2023-01-17T04:56:31.003Z,3.89
2023-01-17T04:57:28.116Z,3.88
2023-01-17T04:58:30.763Z,3.84
2023-01-17T04:59:27.986Z,3.89
2023-01-17T05:00:29.019Z,3.85
2023-01-17T05:01:28.483Z,3.84
2023-01-17T05:02:28.285Z,3.82
2023-01-17T05:03:27.975Z,3.86
2023-01-17T05:04:27.989Z,3.92
2023-01-17T05:05:28.002Z,3.91
2023-01-17T05:06:28.028Z,3.84
2023-01-17T05:07:27.992Z,3.84
2023-01-17T05:08:28.041Z,3.86
2023-01-17T05:09:31.110Z,3.92
2023-01-17T05:10:28.024Z,3.94
2023-01-17T05:11:28.013Z,3.86
2023-01-17T05:12:27.994Z,3.81
2023-01-17T05:13:28.036Z,3.94
2023-01-17T05:14:28.033Z,3.82
2023-01-17T05:15:28.106Z,3.84
2023-01-17T05:16:28.039Z,3.73
2023-01-17T05:17:28.061Z,3.82
2023-01-17T05:18:28.072Z,3.82
2023-01-17T05:19:28.023Z,3.77
2023-01-17T05:20:30.898Z,3.82
2023-01-17T05:21:28.040Z,3.85
2023-01-17T05:22:28.023Z,3.85
2023-01-17T05:23:30.987Z,3.84
2023-01-17T05:24:28.040Z,3.73
2023-01-17T05:25:28.066Z,3.82
2023-01-17T05:26:28.062Z,3.84
2023-01-17T05:27:28.007Z,3.76
2023-01-17T05:28:28.030Z,3.86
2023-01-17T05:29:28.007Z,3.89
2023-01-17T05:30:28.027Z,3.84
2023-01-17T05:31:31.484Z,3.84
2023-01-17T05:32:28.022Z,3.95
2023-01-17T05:33:28.090Z,3.82
2023-01-17T05:34:28.060Z,3.78
2023-01-17T05:35:28.079Z,3.91
2023-01-17T05:36:28.068Z,3.89
2023-01-17T05:37:28.033Z,3.77
2023-01-17T05:38:28.034Z,3.81
2023-01-17T05:39:28.136Z,3.82
2023-01-17T05:40:28.191Z,3.82
2023-01-17T05:41:28.074Z,3.78
2023-01-17T05:42:30.980Z,3.85
2023-01-17T05:43:28.073Z,3.77
2023-01-17T05:44:28.045Z,3.77
2023-01-17T05:45:28.055Z,3.82
2023-01-17T05:46:28.317Z,3.84
2023-01-17T05:47:28.064Z,3.95
2023-01-17T05:48:28.065Z,3.81
2023-01-17T05:49:28.138Z,3.91
2023-01-17T05:50:28.083Z,3.77
2023-01-17T05:51:28.051Z,3.92
2023-01-17T05:52:28.128Z,3.94
2023-01-17T05:53:31.086Z,3.89
2023-01-17T05:54:28.059Z,3.89
2023-01-17T05:55:28.082Z,3.85
2023-01-17T05:56:28.105Z,3.95
2023-01-17T05:57:28.091Z,3.88
2023-01-17T05:58:30.830Z,3.88
2023-01-17T05:59:41.189Z,4
2023-01-17T06:00:28.108Z,3.88
2023-01-17T06:01:28.141Z,3.89
2023-01-17T06:02:28.204Z,3.91
2023-01-17T06:03:28.123Z,3.95
2023-01-17T06:04:31.220Z,3.88
2023-01-17T06:05:28.106Z,3.81
2023-01-17T06:06:28.110Z,3.84
2023-01-17T06:07:28.131Z,3.91
2023-01-17T06:08:28.183Z,3.76
2023-01-17T06:09:31.213Z,3.82
2023-01-17T06:10:28.090Z,3.74
2023-01-17T06:11:28.095Z,3.73
2023-01-17T06:12:28.112Z,3.61
2023-01-17T06:13:28.208Z,3.63
2023-01-17T06:14:28.098Z,3.73
2023-01-17T06:15:30.984Z,3.56
2023-01-17T06:16:28.334Z,3.64
2023-01-17T06:17:28.109Z,3.56
2023-01-17T06:18:28.094Z,3.58
2023-01-17T06:19:28.179Z,3.68
2023-01-17T06:20:31.200Z,3.48
2023-01-17T06:21:28.162Z,3.48
2023-01-17T06:22:28.168Z,3.45
2023-01-17T06:23:28.129Z,3.46
2023-01-17T06:24:28.116Z,3.31
2023-01-17T06:25:28.140Z,3.4
2023-01-17T06:26:27.963Z,3.48
2023-01-17T06:27:28.143Z,3.49
2023-01-17T06:28:28.112Z,3.41
2023-01-17T06:29:28.179Z,3.46
2023-01-17T06:30:28.123Z,3.34
2023-01-17T06:31:31.084Z,3.4
2023-01-17T06:32:28.148Z,3.37
2023-01-17T06:33:28.152Z,3.36
2023-01-17T06:34:28.117Z,3.33
2023-01-17T06:35:28.132Z,3.3
2023-01-17T06:36:28.129Z,3.48
2023-01-17T06:37:28.203Z,3.46
2023-01-17T06:38:28.190Z,3.48
2023-01-17T06:39:28.162Z,3.48
2023-01-17T06:40:28.164Z,3.46
2023-01-17T06:41:28.190Z,3.41
2023-01-17T06:42:28.423Z,3.36
2023-01-17T06:43:28.222Z,3.53
2023-01-17T06:44:28.162Z,3.52
2023-01-17T06:45:28.182Z,3.49
2023-01-17T06:46:28.375Z,3.58
2023-01-17T06:47:28.208Z,3.61
2023-01-17T06:48:28.212Z,3.58
2023-01-17T06:49:28.162Z,3.49
2023-01-17T06:50:28.247Z,3.56
2023-01-17T06:51:28.209Z,3.56
2023-01-17T06:52:28.194Z,3.59
2023-01-17T06:53:28.224Z,3.53
2023-01-17T06:54:28.194Z,3.64
2023-01-17T06:55:28.152Z,3.53
2023-01-17T06:56:28.178Z,3.58
2023-01-17T06:57:28.209Z,3.5
2023-01-17T06:58:28.221Z,3.53
2023-01-17T06:59:28.190Z,3.37
2023-01-17T07:00:29.492Z,3.52
2023-01-17T07:01:28.669Z,3.61
2023-01-17T07:02:28.353Z,3.53
2023-01-17T07:03:28.287Z,3.46
2023-01-17T07:04:28.206Z,3.43
2023-01-17T07:05:28.201Z,3.31
2023-01-17T07:06:28.209Z,3.5
2023-01-17T07:07:28.211Z,3.5
2023-01-17T07:08:28.222Z,3.52
2023-01-17T07:09:28.215Z,3.55
2023-01-17T07:10:28.404Z,3.52
2023-01-17T07:11:28.190Z,3.53
2023-01-17T07:12:28.218Z,3.56
2023-01-17T07:13:28.328Z,3.55
2023-01-17T07:14:28.195Z,3.53
2023-01-17T07:15:28.201Z,3.48
2023-01-17T07:16:28.489Z,3.45
2023-01-17T07:17:28.293Z,3.33
2023-01-17T07:18:28.240Z,3.5
2023-01-17T07:19:28.260Z,3.48
2023-01-17T07:20:28.328Z,3.5
2023-01-17T07:21:28.243Z,3.49
2023-01-17T07:22:28.250Z,3.34
2023-01-17T07:23:28.237Z,3.52
2023-01-17T07:24:28.210Z,3.46
2023-01-17T07:25:31.107Z,3.36
2023-01-17T07:26:28.286Z,3.26
2023-01-17T07:27:28.266Z,3.36
2023-01-17T07:28:28.238Z,3.29
2023-01-17T07:29:28.249Z,3.29
2023-01-17T07:30:28.240Z,3.29
2023-01-17T07:31:28.513Z,3.31
2023-01-17T07:32:28.292Z,3.26
2023-01-17T07:33:28.247Z,3.27
2023-01-17T07:34:28.258Z,3.21
2023-01-17T07:35:28.251Z,3.37
2023-01-17T07:36:31.101Z,3.31
2023-01-17T07:37:28.290Z,3.27
2023-01-17T07:38:28.250Z,3.3
2023-01-17T07:39:28.254Z,3.22
2023-01-17T07:40:28.411Z,3.33
2023-01-17T07:41:28.274Z,3.36
2023-01-17T07:42:28.982Z,3.34
2023-01-17T07:43:28.293Z,3.34
2023-01-17T07:44:28.251Z,3.36
2023-01-17T07:45:28.267Z,3.22
2023-01-17T07:46:28.529Z,3.31
2023-01-17T07:47:31.280Z,3.34
2023-01-17T07:48:28.284Z,3.27
2023-01-17T07:49:28.269Z,3.21
2023-01-17T07:50:28.319Z,3.16
2023-01-17T07:51:28.256Z,3.27
2023-01-17T07:52:28.358Z,3.31
2023-01-17T07:53:28.306Z,3.31
2023-01-17T07:54:28.278Z,3.29
2023-01-17T07:55:28.308Z,3.21
2023-01-17T07:56:28.294Z,3.3
2023-01-17T07:57:28.324Z,3.24
2023-01-17T07:58:31.056Z,3.21
2023-01-17T07:59:28.310Z,3.3
2023-01-17T08:00:28.313Z,3.26
2023-01-17T08:01:28.874Z,3.48
2023-01-17T08:02:28.302Z,3.33
2023-01-17T08:03:28.318Z,3.52
2023-01-17T08:04:28.278Z,3.56
2023-01-17T08:05:28.321Z,3.71
2023-01-17T08:06:28.437Z,3.91
2023-01-17T08:07:28.450Z,4.24
2023-01-17T08:08:28.310Z,4.42
2023-01-17T08:09:31.155Z,4.71
2023-01-17T08:10:28.457Z,4.94
2023-01-17T08:11:28.298Z,5.19
2023-01-17T08:12:28.420Z,5.47
2023-01-17T08:13:29.885Z,5.73
2023-01-17T08:14:28.347Z,5.91
2023-01-17T08:15:28.317Z,6.25
2023-01-17T08:16:28.375Z,6.36
2023-01-17T08:17:28.366Z,6.65
2023-01-17T08:18:28.565Z,6.74
2023-01-17T08:19:28.379Z,6.75
2023-01-17T08:20:33.791Z,6.8
2023-01-17T08:21:28.302Z,6.82
2023-01-17T08:22:28.361Z,6.89
2023-01-17T08:23:28.341Z,6.8
2023-01-17T08:24:28.406Z,6.75
2023-01-17T08:25:31.174Z,6.71
2023-01-17T08:26:28.354Z,6.56
2023-01-17T08:27:28.327Z,6.57
2023-01-17T08:28:28.359Z,6.34
2023-01-17T08:29:28.345Z,6.19
2023-01-17T08:30:28.476Z,5.88
2023-01-17T08:31:31.568Z,5.87
2023-01-17T08:32:28.351Z,5.88
2023-01-17T08:33:28.350Z,5.87
2023-01-17T08:34:28.356Z,5.77
2023-01-17T08:35:28.393Z,5.79
2023-01-17T08:36:31.593Z,5.59
2023-01-17T08:37:28.357Z,5.69
2023-01-17T08:38:28.424Z,5.52
2023-01-17T08:39:28.323Z,5.47
2023-01-17T08:40:28.422Z,5.59
2023-01-17T08:41:28.413Z,5.4
2023-01-17T08:42:31.103Z,5.26
2023-01-17T08:43:28.343Z,5.34
2023-01-17T08:44:28.349Z,5.28
2023-01-17T08:45:28.451Z,5.25
2023-01-17T08:46:28.408Z,5.37
2023-01-17T08:47:29.920Z,5.36
2023-01-17T08:48:28.412Z,5.4
2023-01-17T08:49:28.379Z,5.33
2023-01-17T08:50:28.401Z,5.37
2023-01-17T08:51:28.375Z,5.29
2023-01-17T08:52:28.473Z,5.33
2023-01-17T08:53:28.341Z,5.18
2023-01-17T08:54:28.477Z,5.18
2023-01-17T08:55:28.352Z,5.25
2023-01-17T08:56:28.384Z,5.79
2023-01-17T08:57:28.386Z,6.22
2023-01-17T08:58:32.984Z,5.73
2023-01-17T08:59:28.381Z,5.62
2023-01-17T09:00:28.516Z,5.62
2023-01-17T09:01:29.056Z,5.59
2023-01-17T09:02:28.417Z,5.58
2023-01-17T09:03:28.352Z,5.34
2023-01-17T09:04:28.503Z,5.37
2023-01-17T09:05:28.364Z,5.41
2023-01-17T09:06:28.387Z,5.38
2023-01-17T09:07:28.400Z,5.34
2023-01-17T09:08:28.395Z,5.36
2023-01-17T09:09:31.477Z,5.31
2023-01-17T09:10:28.374Z,5.34
2023-01-17T09:11:28.428Z,5.18
2023-01-17T09:12:28.410Z,5.2
2023-01-17T09:13:28.419Z,5.31
2023-01-17T09:14:28.388Z,5.28
2023-01-17T09:15:28.408Z,5.28
2023-01-17T09:16:28.459Z,5.33
2023-01-17T09:17:28.437Z,5.34
2023-01-17T09:18:28.559Z,5.4
2023-01-17T09:19:28.412Z,5.36
2023-01-17T09:20:28.383Z,5.33
2023-01-17T09:21:28.398Z,5.29
2023-01-17T09:22:28.423Z,5.22
2023-01-17T09:23:28.396Z,5.36
2023-01-17T09:24:28.416Z,5.33
2023-01-17T09:25:28.490Z,5.33
2023-01-17T09:26:28.411Z,5.34
2023-01-17T09:27:28.422Z,5.31
2023-01-17T09:28:28.390Z,5.36
2023-01-17T09:29:28.455Z,5.41
2023-01-17T09:30:28.476Z,5.44
2023-01-17T09:31:28.467Z,5.38
2023-01-17T09:32:28.438Z,5.34
2023-01-17T09:33:28.478Z,5.37
2023-01-17T09:34:28.526Z,5.31
2023-01-17T09:35:28.437Z,5.38
2023-01-17T09:36:28.459Z,5.41
2023-01-17T09:37:28.449Z,5.37
2023-01-17T09:38:28.446Z,5.4
2023-01-17T09:39:28.431Z,5.4
2023-01-17T09:40:28.480Z,5.41
2023-01-17T09:41:28.480Z,5.43
2023-01-17T09:42:28.442Z,5.34
2023-01-17T09:43:28.501Z,5.25
2023-01-17T09:44:28.546Z,5.36
2023-01-17T09:45:28.425Z,5.19
2023-01-17T09:46:28.427Z,5.26
2023-01-17T09:47:28.725Z,5.13
2023-01-17T09:48:28.446Z,5.19
2023-01-17T09:49:28.484Z,5.26
2023-01-17T09:50:28.487Z,5.33
2023-01-17T09:51:28.574Z,5.22
2023-01-17T09:52:31.256Z,5.2
2023-01-17T09:53:28.428Z,5.22
2023-01-17T09:54:28.426Z,5.26
2023-01-17T09:55:28.453Z,5.15
2023-01-17T09:56:28.482Z,5.08
2023-01-17T09:57:28.496Z,5.16
2023-01-17T09:58:28.450Z,5.23
2023-01-17T09:59:38.232Z,5.18
2023-01-17T10:00:28.503Z,5.23
2023-01-17T10:01:29.166Z,5.18
2023-01-17T10:02:31.576Z,5.18
2023-01-17T10:03:31.655Z,5.19
2023-01-17T10:04:28.487Z,5.16
2023-01-17T10:05:28.498Z,5.15
2023-01-17T10:06:28.565Z,5.2
2023-01-17T10:07:28.510Z,5.26
2023-01-17T10:08:28.470Z,5.31
2023-01-17T10:09:28.485Z,5.31
2023-01-17T10:10:28.484Z,5.31
2023-01-17T10:11:28.489Z,5.37
2023-01-17T10:12:28.524Z,5.4
2023-01-17T10:13:28.459Z,5.33
2023-01-17T10:14:31.319Z,5.31
2023-01-17T10:15:28.487Z,5.36
2023-01-17T10:16:28.597Z,5.16
2023-01-17T10:17:28.493Z,5.34
2023-01-17T10:18:34.815Z,5.34
2023-01-17T10:19:28.493Z,5.56
2023-01-17T10:20:28.500Z,5.49
2023-01-17T10:21:28.553Z,5.55
2023-01-17T10:22:28.528Z,5.43
2023-01-17T10:23:28.500Z,5.54
2023-01-17T10:24:28.498Z,5.54
2023-01-17T10:25:31.329Z,5.51
2023-01-17T10:26:28.509Z,5.55
2023-01-17T10:27:28.494Z,5.64
2023-01-17T10:28:28.558Z,5.73
2023-01-17T10:29:28.497Z,5.74
2023-01-17T10:30:28.565Z,5.74
2023-01-17T10:31:28.519Z,5.65
2023-01-17T10:32:28.603Z,5.62
2023-01-17T10:33:28.495Z,5.64
2023-01-17T10:34:31.276Z,5.72
2023-01-17T10:35:28.519Z,5.67
2023-01-17T10:36:31.303Z,5.64
2023-01-17T10:37:28.558Z,5.62
2023-01-17T10:38:28.546Z,5.65
2023-01-17T10:39:28.527Z,5.58
2023-01-17T10:40:28.553Z,5.54
2023-01-17T10:41:28.541Z,5.52
2023-01-17T10:42:28.520Z,5.64
2023-01-17T10:43:28.535Z,5.65
2023-01-17T10:44:28.613Z,5.8
2023-01-17T10:45:28.825Z,5.8
2023-01-17T10:46:28.816Z,5.87
2023-01-17T10:47:31.363Z,5.77
2023-01-17T10:48:28.571Z,5.74
2023-01-17T10:49:28.580Z,5.65
2023-01-17T10:50:28.548Z,5.81
2023-01-17T10:51:28.555Z,5.81
2023-01-17T10:52:31.348Z,5.83
2023-01-17T10:53:28.569Z,5.76
2023-01-17T10:54:28.567Z,5.77
2023-01-17T10:55:28.580Z,5.77
2023-01-17T10:56:28.570Z,5.74
2023-01-17T10:57:28.593Z,5.69
2023-01-17T10:58:31.634Z,5.7
2023-01-17T10:59:28.569Z,5.76
2023-01-17T11:00:28.642Z,5.79
2023-01-17T11:01:29.029Z,5.81
2023-01-17T11:02:29.009Z,5.77
2023-01-17T11:03:29.989Z,5.81
2023-01-17T11:04:28.569Z,5.8
2023-01-17T11:05:28.555Z,5.74
2023-01-17T11:06:31.547Z,5.9
2023-01-17T11:07:28.606Z,5.84
2023-01-17T11:08:28.637Z,5.81
2023-01-17T11:09:31.652Z,5.79
2023-01-17T11:10:28.598Z,5.88
2023-01-17T11:11:28.621Z,5.8
2023-01-17T11:12:28.599Z,5.92
2023-01-17T11:13:28.653Z,5.8
2023-01-17T11:14:31.410Z,5.7
2023-01-17T11:15:28.681Z,5.64
2023-01-17T11:16:31.274Z,5.61
2023-01-17T11:17:28.640Z,5.61
2023-01-17T11:18:28.621Z,5.58
2023-01-17T11:19:28.601Z,5.52
2023-01-17T11:20:28.618Z,5.54
2023-01-17T11:21:28.620Z,5.59
2023-01-17T11:22:28.578Z,5.69
2023-01-17T11:23:28.596Z,5.58
2023-01-17T11:24:28.625Z,5.67
2023-01-17T11:25:31.598Z,5.7
2023-01-17T11:26:28.586Z,5.74
2023-01-17T11:27:28.632Z,5.79
2023-01-17T11:28:28.684Z,5.59
2023-01-17T11:29:28.577Z,5.59
2023-01-17T11:30:28.601Z,5.59
2023-01-17T11:31:31.617Z,5.67
2023-01-17T11:32:28.674Z,5.65
2023-01-17T11:33:30.172Z,5.54
2023-01-17T11:34:28.698Z,5.59
2023-01-17T11:35:28.625Z,5.51
2023-01-17T11:36:31.647Z,5.52
2023-01-17T11:37:28.650Z,5.56
2023-01-17T11:38:28.629Z,5.47
2023-01-17T11:39:28.611Z,5.51
2023-01-17T11:40:28.658Z,5.55
2023-01-17T11:41:31.205Z,5.58
2023-01-17T11:42:28.656Z,5.61
2023-01-17T11:43:28.820Z,5.67
2023-01-17T11:44:28.631Z,5.69
2023-01-17T11:45:28.630Z,5.7
2023-01-17T11:46:28.905Z,5.69
2023-01-17T11:47:28.607Z,5.77
2023-01-17T11:48:28.676Z,5.67
2023-01-17T11:49:28.677Z,5.81
2023-01-17T11:50:28.657Z,5.77
2023-01-17T11:51:28.692Z,5.8
2023-01-17T11:52:28.690Z,5.74
2023-01-17T11:53:28.656Z,5.81
2023-01-17T11:54:28.634Z,5.87
2023-01-17T11:55:28.705Z,5.76
2023-01-17T11:56:28.662Z,5.73
2023-01-17T11:57:28.681Z,5.72
2023-01-17T11:58:28.713Z,5.83
2023-01-17T11:59:28.653Z,5.84
2023-01-17T12:00:28.651Z,5.77
2023-01-17T12:01:28.734Z,5.69
2023-01-17T12:02:28.639Z,5.79
2023-01-17T12:03:28.888Z,5.81
2023-01-17T12:04:28.718Z,5.77
2023-01-17T12:05:28.764Z,5.83
2023-01-17T12:06:28.741Z,5.81
2023-01-17T12:07:28.719Z,5.76
2023-01-17T12:08:28.705Z,5.8
2023-01-17T12:09:28.700Z,5.79
2023-01-17T12:10:28.662Z,5.8
2023-01-17T12:11:28.743Z,5.91
2023-01-17T12:12:28.727Z,5.83
2023-01-17T12:13:28.814Z,5.79
2023-01-17T12:14:28.747Z,5.8
2023-01-17T12:15:28.668Z,5.87
2023-01-17T12:16:31.786Z,5.81
2023-01-17T12:17:28.686Z,5.84
2023-01-17T12:18:28.762Z,5.91
2023-01-17T12:19:32.055Z,5.77
2023-01-17T12:20:28.679Z,5.98
2023-01-17T12:21:28.672Z,5.81
2023-01-17T12:22:28.663Z,5.9
2023-01-17T12:23:28.957Z,5.84
2023-01-17T12:24:28.702Z,5.79
2023-01-17T12:25:28.685Z,5.8
2023-01-17T12:26:28.745Z,5.83
2023-01-17T12:27:28.675Z,5.9
2023-01-17T12:28:28.927Z,5.77
2023-01-17T12:29:28.724Z,5.77
2023-01-17T12:30:31.818Z,5.72
2023-01-17T12:31:28.908Z,5.84
2023-01-17T12:32:28.766Z,5.79
2023-01-17T12:33:28.702Z,5.77
2023-01-17T12:34:28.766Z,5.69
2023-01-17T12:35:28.821Z,5.65
2023-01-17T12:36:28.827Z,5.7
2023-01-17T12:37:28.756Z,5.67
2023-01-17T12:38:37.358Z,5.72
2023-01-17T12:39:28.713Z,5.67
2023-01-17T12:40:28.732Z,5.72
2023-01-17T12:41:31.489Z,5.65
2023-01-17T12:42:28.730Z,5.69
2023-01-17T12:43:29.158Z,5.59
2023-01-17T12:44:28.786Z,5.61
2023-01-17T12:45:28.784Z,5.62
2023-01-17T12:46:28.996Z,5.59
2023-01-17T12:47:28.727Z,5.7
2023-01-17T12:48:28.732Z,5.62
2023-01-17T12:49:28.732Z,5.72
2023-01-17T12:50:28.755Z,5.61
2023-01-17T12:51:28.825Z,5.67
2023-01-17T12:52:31.537Z,5.67
2023-01-17T12:53:28.750Z,5.7
2023-01-17T12:54:28.873Z,5.62
2023-01-17T12:55:28.759Z,5.77
2023-01-17T12:56:28.780Z,5.76
2023-01-17T12:57:28.977Z,5.73
2023-01-17T12:58:28.866Z,5.69
2023-01-17T12:59:28.743Z,5.69
2023-01-17T13:00:31.622Z,5.72
2023-01-17T13:01:29.054Z,5.67
2023-01-17T13:02:28.840Z,5.64
2023-01-17T13:03:31.893Z,5.62
2023-01-17T13:04:28.764Z,5.72
2023-01-17T13:05:28.780Z,5.76
2023-01-17T13:06:28.750Z,5.72
2023-01-17T13:07:28.925Z,5.64
2023-01-17T13:08:28.734Z,5.65
2023-01-17T13:09:28.766Z,5.64
2023-01-17T13:10:30.943Z,5.62
2023-01-17T13:11:28.860Z,5.55
2023-01-17T13:12:28.920Z,5.55
2023-01-17T13:13:28.819Z,5.46
2023-01-17T13:14:31.831Z,5.49
2023-01-17T13:15:28.771Z,5.59
2023-01-17T13:16:28.954Z,5.56
2023-01-17T13:17:28.820Z,5.55
2023-01-17T13:18:28.781Z,5.51
2023-01-17T13:19:29.092Z,5.61
2023-01-17T13:20:28.777Z,5.58
2023-01-17T13:21:28.889Z,5.58
2023-01-17T13:22:28.813Z,5.61